Time;durP1;ratioP1;P1;durP2;ratioP2;P2;SDS_P1;SDS_P2;PMS_P1;PMS_P2;Temp;Humidity;BMP_temperature;BMP_pressure;BME280_temperature;BME280_humidity;BME280_pressure;Samples;Min_cycle;Max_cycle;Signal;HPM_P1;HPM_P2
2022/04/10 00:02:22;;;;;;;0.93;0.83;;;5.40;1.00;;;;;;5037634;28;20448;-78
2022/04/10 00:04:50;;;;;;;0.50;0.10;;;5.40;1.00;;;;;;5036321;28;20440;-79
2022/04/10 00:07:17;;;;;;;7.03;0.87;;;5.40;1.00;;;;;;5037995;28;20476;-77
2022/04/10 00:09:45;;;;;;;0.60;0.20;;;5.40;1.00;;;;;;5038929;28;20799;-79
2022/04/10 00:12:13;;;;;;;0.50;0.10;;;5.40;1.00;;;;;;5038486;28;20471;-80
2022/04/10 00:14:42;;;;;;;0.60;0.10;;;5.40;1.00;;;;;;5037284;28;20476;-79
2022/04/10 00:17:11;;;;;;;0.60;0.10;;;5.50;1.00;;;;;;5038590;28;20540;-79
2022/04/10 00:19:39;;;;;;;0.50;0.10;;;5.50;1.00;;;;;;5045467;28;20443;-78
2022/04/10 00:22:08;;;;;;;0.50;0.10;;;5.50;1.00;;;;;;5041270;28;20756;-78
2022/04/10 00:24:36;;;;;;;0.50;0.10;;;5.50;1.00;;;;;;5041293;28;20468;-79
2022/04/10 00:27:05;;;;;;;0.60;0.10;;;5.50;1.00;;;;;;5060972;28;20575;-77
2022/04/10 00:29:33;;;;;;;0.60;0.10;;;5.50;1.00;;;;;;5047183;28;20527;-79
2022/04/10 00:32:01;;;;;;;0.60;0.10;;;5.60;1.00;;;;;;5040250;28;20452;-78
2022/04/10 00:34:30;;;;;;;0.60;0.10;;;5.50;1.00;;;;;;5036239;28;20503;-79
2022/04/10 00:36:58;;;;;;;0.50;0.10;;;5.40;1.00;;;;;;5036246;28;20479;-79
2022/04/10 00:39:26;;;;;;;0.50;0.10;;;5.40;1.00;;;;;;5042580;28;20570;-79
2022/04/10 00:41:54;;;;;;;0.50;0.10;;;5.30;1.00;;;;;;5044947;28;20471;-78
2022/04/10 00:44:22;;;;;;;0.50;0.10;;;5.30;1.00;;;;;;5027883;28;20452;-79
2022/04/10 00:46:50;;;;;;;0.50;0.10;;;5.30;1.00;;;;;;5027373;28;21040;-79
2022/04/10 00:49:19;;;;;;;0.50;0.10;;;5.30;1.00;;;;;;5040424;28;20878;-80
2022/04/10 00:51:52;;;;;;;0.60;0.10;;;5.30;1.00;;;;;;5043085;28;20482;-79
2022/04/10 00:54:24;;;;;;;0.60;0.10;;;5.20;1.00;;;;;;5048227;28;20472;-78
2022/04/10 00:56:54;;;;;;;0.50;0.10;;;5.20;1.00;;;;;;5048049;28;20542;-78
2022/04/10 00:59:22;;;;;;;0.50;0.10;;;5.20;1.00;;;;;;5048690;28;20465;-78
2022/04/10 01:01:50;;;;;;;0.50;0.10;;;5.20;1.00;;;;;;5048449;28;20455;-79
2022/04/10 01:04:38;;;;;;;0.60;0.10;;;5.20;1.00;;;;;;5045965;28;20440;-78
2022/04/10 01:07:07;;;;;;;0.50;0.10;;;5.10;1.00;;;;;;5046353;28;20559;-79
2022/04/10 01:09:35;;;;;;;0.50;0.10;;;5.10;1.00;;;;;;5043930;28;20463;-79
2022/04/10 01:12:03;;;;;;;0.50;0.10;;;5.00;1.00;;;;;;5049497;28;20447;-78
2022/04/10 01:14:31;;;;;;;0.57;0.20;;;5.00;1.00;;;;;;5039595;28;20538;-79
2022/04/10 01:17:01;;;;;;;11.40;0.50;;;5.00;1.00;;;;;;5041308;28;20478;-78
2022/04/10 01:19:29;;;;;;;0.60;0.10;;;5.00;1.00;;;;;;5052672;28;20448;-77
2022/04/10 01:22:00;;;;;;;0.50;0.10;;;5.00;1.00;;;;;;5058379;28;20442;-77
2022/04/10 01:24:30;;;;;;;0.50;0.10;;;5.10;1.00;;;;;;5049918;28;20522;-79
2022/04/10 01:26:58;;;;;;;0.53;0.27;;;5.10;1.00;;;;;;5044144;28;20550;-78
2022/04/10 01:29:28;;;;;;;0.60;0.10;;;5.10;1.00;;;;;;5051574;28;20501;-77
2022/04/10 01:31:57;;;;;;;0.50;0.10;;;5.10;1.00;;;;;;5060327;28;20463;-77
2022/04/10 01:34:25;;;;;;;0.60;0.10;;;5.10;1.00;;;;;;5062124;28;20482;-79
2022/04/10 01:36:53;;;;;;;0.50;0.10;;;5.00;1.00;;;;;;5059077;28;20531;-77
2022/04/10 01:39:22;;;;;;;1.27;0.47;;;5.00;1.00;;;;;;5057895;28;20464;-77
2022/04/10 01:41:52;;;;;;;0.60;0.20;;;5.00;1.00;;;;;;5047768;28;20448;-77
2022/04/10 01:44:19;;;;;;;0.70;0.50;;;4.90;1.00;;;;;;5045152;28;20451;-76
2022/04/10 01:46:47;;;;;;;0.50;0.10;;;4.90;1.00;;;;;;5056777;28;20486;-77
2022/04/10 01:49:15;;;;;;;0.60;0.20;;;4.90;1.00;;;;;;5056921;28;20463;-77
2022/04/10 01:51:43;;;;;;;0.60;0.23;;;4.80;1.00;;;;;;5048097;28;20440;-79
2022/04/10 01:54:11;;;;;;;0.60;0.10;;;4.90;1.00;;;;;;5023215;28;20456;-77
2022/04/10 01:56:39;;;;;;;0.60;0.20;;;4.90;1.00;;;;;;5019757;28;20543;-79
2022/04/10 01:59:09;;;;;;;0.50;0.10;;;4.90;1.00;;;;;;5023604;28;20459;-80
2022/04/10 02:01:37;;;;;;;0.60;0.10;;;4.90;1.00;;;;;;5037715;28;20456;-79
2022/04/10 02:04:05;;;;;;;0.50;0.10;;;5.00;1.00;;;;;;5045851;28;20451;-79
2022/04/10 02:06:35;;;;;;;0.60;0.20;;;5.00;1.00;;;;;;5043403;28;20837;-79
2022/04/10 02:09:07;;;;;;;0.60;0.20;;;4.90;1.00;;;;;;5041357;28;20487;-79
2022/04/10 02:11:35;;;;;;;0.70;0.60;;;4.90;1.00;;;;;;5045895;28;20454;-78
2022/04/10 02:14:03;;;;;;;0.60;0.40;;;4.80;1.00;;;;;;5038401;28;20539;-79
2022/04/10 02:16:32;;;;;;;0.60;0.10;;;4.80;1.00;;;;;;5037492;28;20493;-78
2022/04/10 02:19:00;;;;;;;0.50;0.13;;;4.80;1.00;;;;;;5038744;28;20450;-78
2022/04/10 02:21:28;;;;;;;0.67;0.23;;;4.80;1.00;;;;;;5037925;28;20458;-78
2022/04/10 02:23:57;;;;;;;0.50;0.10;;;4.80;1.00;;;;;;5039125;28;20524;-78
2022/04/10 02:26:24;;;;;;;2.10;0.57;;;4.70;1.00;;;;;;5039321;28;20467;-79
2022/04/10 02:28:52;;;;;;;0.60;0.20;;;4.70;1.00;;;;;;5036709;28;21161;-77
2022/04/10 02:31:20;;;;;;;0.60;0.30;;;4.70;1.00;;;;;;5042878;28;20452;-79
2022/04/10 02:33:49;;;;;;;0.50;0.10;;;4.70;1.00;;;;;;5047076;28;20448;-78
2022/04/10 02:36:19;;;;;;;3.47;2.90;;;4.70;1.00;;;;;;5042639;28;20489;-79
2022/04/10 02:38:47;;;;;;;0.60;0.20;;;4.70;1.00;;;;;;5040706;28;20450;-78
2022/04/10 02:41:21;;;;;;;0.70;0.50;;;4.60;1.00;;;;;;5045011;28;20434;-77
2022/04/10 02:43:49;;;;;;;1.43;1.33;;;4.60;1.00;;;;;;5047948;28;20490;-79
2022/04/10 02:46:17;;;;;;;0.60;0.10;;;4.60;1.00;;;;;;5050614;28;20492;-77
2022/04/10 02:48:44;;;;;;;0.60;0.20;;;4.60;1.00;;;;;;5041866;28;20452;-79
2022/04/10 02:51:14;;;;;;;0.60;0.10;;;4.60;1.00;;;;;;5043614;28;20518;-77
2022/04/10 02:53:41;;;;;;;0.60;0.20;;;4.50;1.00;;;;;;5057657;28;20500;-78
2022/04/10 02:56:09;;;;;;;0.60;0.53;;;4.50;1.00;;;;;;5052498;28;20486;-79
2022/04/10 02:58:37;;;;;;;0.60;0.20;;;4.50;1.00;;;;;;5038624;28;20951;-79
2022/04/10 03:01:05;;;;;;;0.60;0.20;;;4.50;1.00;;;;;;5044604;28;20448;-79
2022/04/10 03:03:33;;;;;;;2.00;1.80;;;4.50;1.00;;;;;;5047079;28;20800;-78
2022/04/10 03:06:01;;;;;;;0.50;0.10;;;4.40;1.00;;;;;;5038172;28;20919;-80
2022/04/10 03:08:30;;;;;;;0.60;0.30;;;4.40;1.00;;;;;;5037639;28;20897;-78
2022/04/10 03:10:58;;;;;;;1.33;1.20;;;4.40;1.00;;;;;;5048524;28;20826;-77
2022/04/10 03:13:26;;;;;;;2.10;1.23;;;4.40;1.00;;;;;;5046449;28;20450;-79
2022/04/10 03:15:54;;;;;;;0.50;0.10;;;4.30;1.00;;;;;;5038398;28;20518;-79
2022/04/10 03:18:22;;;;;;;0.50;0.10;;;4.30;1.00;;;;;;5036658;28;20817;-80
2022/04/10 03:20:50;;;;;;;0.50;0.10;;;4.30;1.00;;;;;;5037504;28;20458;-79
2022/04/10 03:23:18;;;;;;;0.50;0.10;;;4.20;1.00;;;;;;5038016;28;20435;-79
2022/04/10 03:25:47;;;;;;;0.60;0.20;;;4.20;1.00;;;;;;5038882;28;20807;-78
2022/04/10 03:28:16;;;;;;;0.70;0.37;;;4.20;1.00;;;;;;5038296;28;20445;-79
2022/04/10 03:30:44;;;;;;;0.60;0.20;;;4.20;1.00;;;;;;5044815;28;20456;-77
2022/04/10 03:33:13;;;;;;;0.50;0.10;;;4.10;1.00;;;;;;5049738;28;20443;-78
2022/04/10 03:35:41;;;;;;;0.60;0.20;;;4.10;1.00;;;;;;5061675;23;20490;-76
2022/04/10 03:38:09;;;;;;;0.80;0.50;;;4.20;1.00;;;;;;5076218;28;20810;-76
2022/04/10 03:40:37;;;;;;;0.57;0.20;;;4.20;1.00;;;;;;5078757;28;20548;-77
2022/04/10 03:43:06;;;;;;;0.60;0.30;;;4.10;1.00;;;;;;5078504;28;20434;-78
2022/04/10 03:45:34;;;;;;;0.60;0.20;;;4.10;1.00;;;;;;5070314;28;20438;-77
2022/04/10 03:48:02;;;;;;;0.50;0.10;;;4.10;1.00;;;;;;5096317;28;20448;-75
2022/04/10 03:50:30;;;;;;;0.50;0.10;;;4.20;1.00;;;;;;5095213;28;20446;-78
2022/04/10 03:52:58;;;;;;;0.50;0.20;;;4.20;1.00;;;;;;5095145;28;20468;-78
2022/04/10 03:55:26;;;;;;;0.50;0.10;;;;;;;;;;5094679;28;20446;-77
2022/04/10 03:57:54;;;;;;;0.50;0.10;;;4.20;1.00;;;;;;5094056;28;20438;-77
2022/04/10 04:00:24;;;;;;;0.50;0.10;;;4.20;1.00;;;;;;5096596;28;20443;-77
2022/04/10 04:02:52;;;;;;;0.50;0.10;;;4.30;1.00;;;;;;5104508;28;20442;-77
2022/04/10 04:05:20;;;;;;;0.60;0.10;;;4.30;1.00;;;;;;5105068;28;20438;-77
2022/04/10 04:07:48;;;;;;;0.50;0.10;;;4.30;1.00;;;;;;5094262;28;20541;-77
2022/04/10 04:10:22;;;;;;;0.50;0.10;;;4.30;1.00;;;;;;5094689;28;20491;-77
2022/04/10 04:12:50;;;;;;;0.60;0.27;;;4.30;1.00;;;;;;5095656;28;20544;-76
2022/04/10 04:15:19;;;;;;;0.60;0.10;;;4.30;1.00;;;;;;5099632;28;20449;-77
2022/04/10 04:17:48;;;;;;;0.53;0.10;;;4.30;1.00;;;;;;5097656;28;20518;-77
2022/04/10 04:20:16;;;;;;;0.60;0.10;;;4.20;1.00;;;;;;5096406;28;20444;-77
2022/04/10 04:22:44;;;;;;;0.50;0.10;;;4.20;1.00;;;;;;5074653;28;20505;-77
2022/04/10 04:25:12;;;;;;;0.50;0.10;;;4.20;1.00;;;;;;5079311;28;20441;-77
2022/04/10 04:27:40;;;;;;;0.50;0.10;;;4.20;1.00;;;;;;5103691;28;20466;-76
2022/04/10 04:30:08;;;;;;;0.53;0.10;;;4.20;1.00;;;;;;5101859;28;20450;-77
2022/04/10 04:32:36;;;;;;;0.50;0.10;;;4.20;1.00;;;;;;5096783;28;20441;-77
2022/04/10 04:35:06;;;;;;;0.50;0.10;;;4.20;1.00;;;;;;5095599;28;20528;-77
2022/04/10 04:37:40;;;;;;;0.50;0.20;;;4.20;1.00;;;;;;5093997;28;20523;-76
2022/04/10 04:40:09;;;;;;;0.50;0.10;;;4.20;1.00;;;;;;5094028;28;20462;-78
2022/04/10 04:42:37;;;;;;;0.50;0.10;;;4.20;1.00;;;;;;5095223;28;20467;-78
2022/04/10 04:45:06;;;;;;;0.50;0.10;;;4.20;1.00;;;;;;5093995;28;20442;-77
2022/04/10 04:47:34;;;;;;;0.50;0.10;;;4.20;1.00;;;;;;5095103;28;20471;-77
2022/04/10 04:50:01;;;;;;;0.50;0.10;;;4.20;1.00;;;;;;5101031;28;20456;-77
2022/04/10 04:52:31;;;;;;;0.50;0.10;;;4.20;1.00;;;;;;5101027;28;20520;-77
2022/04/10 04:54:59;;;;;;;0.60;0.10;;;4.20;1.00;;;;;;5099542;28;20472;-77
2022/04/10 04:57:27;;;;;;;0.60;0.20;;;4.30;1.00;;;;;;5098514;28;20976;-77
2022/04/10 04:59:54;;;;;;;0.50;0.10;;;4.30;1.00;;;;;;5095247;28;20826;-77
2022/04/10 05:02:22;;;;;;;0.60;0.30;;;4.20;1.00;;;;;;5089115;28;20461;-78
2022/04/10 05:04:51;;;;;;;0.50;0.10;;;4.20;1.00;;;;;;5095630;28;20457;-77
2022/04/10 05:07:19;;;;;;;0.60;0.10;;;4.10;1.00;;;;;;5097852;28;20999;-78
2022/04/10 05:09:48;;;;;;;0.50;0.10;;;4.10;1.00;;;;;;5096226;28;20449;-77
2022/04/10 05:12:16;;;;;;;0.50;0.10;;;4.10;1.00;;;;;;5095092;28;21152;-77
2022/04/10 05:14:45;;;;;;;0.50;0.10;;;4.20;1.00;;;;;;5096538;28;20454;-77
2022/04/10 05:17:13;;;;;;;0.50;0.10;;;4.20;1.00;;;;;;5083205;28;20478;-77
2022/04/10 05:19:41;;;;;;;0.50;0.10;;;4.20;1.00;;;;;;5090481;28;20454;-78
2022/04/10 05:22:09;;;;;;;0.50;0.10;;;;;;;;;;5095689;28;20529;-78
2022/04/10 05:24:37;;;;;;;0.50;0.10;;;4.20;1.00;;;;;;5095355;28;20448;-77
2022/04/10 05:27:10;;;;;;;0.50;0.10;;;4.40;1.00;;;;;;5092793;28;20465;-77
2022/04/10 05:29:37;;;;;;;0.60;0.10;;;4.40;1.00;;;;;;5097742;28;20524;-77
2022/04/10 05:32:07;;;;;;;0.50;0.10;;;4.40;1.00;;;;;;5095416;28;20444;-78
2022/04/10 05:34:35;;;;;;;0.70;0.50;;;4.50;1.00;;;;;;5096773;28;20492;-78
2022/04/10 05:37:03;;;;;;;2.20;0.70;;;4.50;1.00;;;;;;5095989;28;20485;-78
2022/04/10 05:39:31;;;;;;;0.53;0.10;;;4.50;1.00;;;;;;5099165;28;20535;-77
2022/04/10 05:41:59;;;;;;;0.60;0.37;;;;;;;;;;5098022;28;20965;-77
2022/04/10 05:44:29;;;;;;;0.50;0.20;;;4.50;1.00;;;;;;5099630;28;20453;-77
2022/04/10 05:46:57;;;;;;;0.70;0.40;;;4.50;1.00;;;;;;5102046;28;20556;-77
2022/04/10 05:49:25;;;;;;;0.60;0.30;;;4.60;1.00;;;;;;5101832;28;20989;-78
2022/04/10 05:51:53;;;;;;;1.07;0.83;;;4.70;1.00;;;;;;5099549;28;20475;-77
2022/04/10 05:54:21;;;;;;;0.90;0.47;;;4.70;1.00;;;;;;5097364;28;20536;-78
2022/04/10 05:56:49;;;;;;;1.40;0.60;;;4.70;1.00;;;;;;5095041;28;20501;-77
2022/04/10 05:59:17;;;;;;;0.60;0.30;;;4.70;1.00;;;;;;5096083;28;20818;-75
2022/04/10 06:01:46;;;;;;;0.50;0.20;;;4.80;1.00;;;;;;5096824;28;20883;-76
2022/04/10 06:04:15;;;;;;;0.80;0.30;;;;;;;;;;5095815;28;21026;-77
2022/04/10 06:06:43;;;;;;;0.50;0.20;;;4.80;1.00;;;;;;5098039;28;20473;-77
2022/04/10 06:09:11;;;;;;;0.60;0.10;;;4.80;1.00;;;;;;5099929;28;20441;-77
2022/04/10 06:11:39;;;;;;;0.50;0.20;;;4.80;1.00;;;;;;5097069;28;20442;-77
2022/04/10 06:14:07;;;;;;;3.50;0.50;;;4.90;1.00;;;;;;5101260;28;20826;-77
2022/04/10 06:16:35;;;;;;;0.50;0.10;;;;;;;;;;5099353;28;20484;-77
2022/04/10 06:19:04;;;;;;;0.50;0.10;;;5.00;1.00;;;;;;5097872;28;20466;-77
2022/04/10 06:21:33;;;;;;;0.50;0.10;;;;;;;;;;5096739;28;20436;-77
2022/04/10 06:24:01;;;;;;;0.50;0.10;;;5.20;1.00;;;;;;5096272;28;20454;-77
2022/04/10 06:26:28;;;;;;;0.53;0.10;;;5.50;1.00;;;;;;5096040;28;20947;-77
2022/04/10 06:28:57;;;;;;;0.60;0.10;;;5.60;1.00;;;;;;5096742;28;20494;-78
2022/04/10 06:31:25;;;;;;;0.50;0.10;;;5.60;1.00;;;;;;5097505;28;20877;-77
2022/04/10 06:33:56;;;;;;;0.50;0.20;;;5.70;1.00;;;;;;5094674;28;20962;-77
2022/04/10 06:36:25;;;;;;;0.60;0.10;;;5.80;1.00;;;;;;5094493;28;20513;-78
2022/04/10 06:38:53;;;;;;;0.50;0.10;;;5.80;1.00;;;;;;5096137;28;20487;-77
2022/04/10 06:41:21;;;;;;;0.50;0.10;;;5.90;1.00;;;;;;5096254;28;20950;-76
2022/04/10 06:43:49;;;;;;;0.60;0.10;;;6.00;1.00;;;;;;5105876;28;20919;-77
2022/04/10 06:46:17;;;;;;;0.60;0.10;;;6.10;1.00;;;;;;5103856;28;20478;-77
2022/04/10 06:48:46;;;;;;;0.60;0.20;;;6.10;1.00;;;;;;5096814;28;20450;-77
2022/04/10 06:51:14;;;;;;;0.60;0.10;;;6.10;1.00;;;;;;5096846;28;20474;-77
2022/04/10 06:53:43;;;;;;;0.60;0.10;;;6.10;1.00;;;;;;5099008;28;20458;-77
2022/04/10 06:56:12;;;;;;;0.60;0.10;;;6.10;1.00;;;;;;5096135;28;20489;-77
2022/04/10 06:58:41;;;;;;;0.60;0.10;;;6.10;1.00;;;;;;5100234;28;20487;-77
2022/04/10 07:01:09;;;;;;;0.60;0.10;;;6.10;1.00;;;;;;5104980;28;20873;-76
2022/04/10 07:03:37;;;;;;;0.60;0.10;;;6.20;1.00;;;;;;5103789;28;20477;-77
2022/04/10 07:06:05;;;;;;;0.60;0.10;;;6.20;1.00;;;;;;5100876;28;20475;-76
2022/04/10 07:08:33;;;;;;;0.60;0.10;;;6.20;1.00;;;;;;5100201;28;20454;-77
2022/04/10 07:11:02;;;;;;;0.50;0.10;;;6.10;1.00;;;;;;5096658;28;20461;-78
2022/04/10 07:13:31;;;;;;;0.60;0.10;;;;;;;;;;5096151;28;20457;-77
2022/04/10 07:15:59;;;;;;;0.60;0.10;;;6.10;1.00;;;;;;5096019;28;20525;-77
2022/04/10 07:18:27;;;;;;;0.50;0.10;;;6.10;1.00;;;;;;5096365;28;21310;-77
2022/04/10 07:20:55;;;;;;;0.60;0.10;;;6.10;1.00;;;;;;5097052;28;20441;-77
2022/04/10 07:26:13;;;;;;;0.60;0.10;;;6.00;1.00;;;;;;5097148;28;20523;-77
2022/04/10 07:28:41;;;;;;;0.60;0.10;;;6.00;1.00;;;;;;5106837;28;20450;-77
2022/04/10 07:31:10;;;;;;;3.57;2.90;;;6.00;1.00;;;;;;5101752;28;20463;-76
2022/04/10 07:33:39;;;;;;;0.60;0.10;;;;;;;;;;5090453;28;20450;-77
2022/04/10 07:36:07;;;;;;;0.50;0.10;;;6.10;1.00;;;;;;5094988;28;20520;-77
2022/04/10 07:38:35;;;;;;;0.60;0.10;;;6.10;1.00;;;;;;5095227;28;20485;-78
2022/04/10 07:41:02;;;;;;;0.50;0.10;;;6.20;1.00;;;;;;5097978;28;20449;-78
2022/04/10 07:43:32;;;;;;;0.60;0.10;;;6.20;1.00;;;;;;5096052;28;20481;-77
2022/04/10 07:48:45;;;;;;;0.60;0.30;;;6.30;1.00;;;;;;5096865;28;20445;-78
2022/04/10 07:51:13;;;;;;;0.53;0.10;;;6.30;1.00;;;;;;5096327;28;20449;-78
2022/04/10 07:53:41;;;;;;;0.70;0.30;;;6.30;1.00;;;;;;5096463;28;20441;-77
2022/04/10 07:56:10;;;;;;;0.60;0.10;;;6.30;1.00;;;;;;5096291;28;20518;-78
2022/04/10 07:58:39;;;;;;;0.60;0.20;;;6.30;1.00;;;;;;5097754;28;20504;-77
2022/04/10 08:01:08;;;;;;;0.67;0.43;;;6.40;1.00;;;;;;5100428;28;20492;-77
2022/04/10 08:03:36;;;;;;;0.60;0.20;;;6.50;1.00;;;;;;5094644;28;20959;-78
2022/04/10 08:06:04;;;;;;;0.60;0.20;;;6.60;1.00;;;;;;5094755;28;20473;-77
2022/04/10 08:08:32;;;;;;;0.60;0.10;;;;;;;;;;5096165;28;21026;-77
2022/04/10 08:11:00;;;;;;;0.60;0.10;;;6.60;1.00;;;;;;5095504;28;20455;-78
2022/04/10 08:13:28;;;;;;;0.60;0.37;;;6.50;1.00;;;;;;5088824;28;20896;-76
2022/04/10 08:15:58;;;;;;;0.57;0.20;;;6.60;1.00;;;;;;5094097;28;20494;-77
2022/04/10 08:18:26;;;;;;;0.60;0.10;;;6.60;1.00;;;;;;5092575;28;20470;-79
2022/04/10 08:20:53;;;;;;;0.60;0.10;;;6.60;1.00;;;;;;5093882;28;20451;-77
2022/04/10 08:23:22;;;;;;;0.60;0.10;;;6.60;1.00;;;;;;5094449;28;20446;-77
2022/04/10 08:25:50;;;;;;;0.70;0.53;;;6.60;1.00;;;;;;5097219;28;20470;-77
2022/04/10 08:28:18;;;;;;;3.07;0.77;;;6.70;1.00;;;;;;5095915;28;20821;-75
2022/04/10 08:30:46;;;;;;;0.60;0.20;;;;;;;;;;5095412;28;20469;-77
2022/04/10 08:33:16;;;;;;;0.60;0.10;;;6.50;1.00;;;;;;5095932;28;20466;-76
2022/04/10 08:35:44;;;;;;;0.60;0.10;;;6.50;1.00;;;;;;5095888;28;20540;-75
2022/04/10 08:38:12;;;;;;;0.60;0.10;;;;;;;;;;5094613;28;20567;-77
2022/04/10 08:40:41;;;;;;;48.20;45.00;;;6.50;1.00;;;;;;5095771;28;20438;-77
2022/04/10 08:43:11;;;;;;;0.90;0.73;;;6.40;1.00;;;;;;5091361;28;20471;-77
2022/04/10 08:45:40;;;;;;;0.60;0.10;;;6.50;1.00;;;;;;5094075;28;20445;-79
2022/04/10 08:48:08;;;;;;;0.80;0.40;;;6.40;1.00;;;;;;5088787;28;20430;-78
2022/04/10 08:50:39;;;;;;;0.60;0.10;;;6.50;1.00;;;;;;5087970;28;20446;-78
2022/04/10 08:53:07;;;;;;;0.70;0.57;;;;;;;;;;5096031;28;20822;-77
2022/04/10 08:55:41;;;;;;;0.60;0.10;;;6.60;1.00;;;;;;5095492;28;20442;-78
2022/04/10 08:58:09;;;;;;;0.60;0.10;;;6.70;1.00;;;;;;5095262;28;20457;-76
2022/04/10 09:00:37;;;;;;;0.60;0.10;;;6.70;1.00;;;;;;5101414;28;20452;-78
2022/04/10 09:03:05;;;;;;;0.60;0.27;;;6.80;1.00;;;;;;5102751;28;20507;-77
2022/04/10 09:05:33;;;;;;;0.60;0.10;;;6.80;1.00;;;;;;5104437;28;20482;-78
2022/04/10 09:08:10;;;;;;;0.60;0.10;;;6.80;1.00;;;;;;5101170;28;20438;-76
2022/04/10 09:10:57;;;;;;;1.93;1.50;;;6.80;1.00;;;;;;5099639;28;20453;-77
2022/04/10 09:13:29;;;;;;;0.60;0.10;;;6.80;1.00;;;;;;5110535;28;20454;-77
2022/04/10 09:16:18;;;;;;;0.60;0.10;;;7.00;1.00;;;;;;5113302;28;20473;-77
2022/04/10 09:18:52;;;;;;;0.60;0.10;;;7.10;1.00;;;;;;5099487;28;20476;-77
2022/04/10 09:21:22;;;;;;;8.00;7.37;;;7.30;1.00;;;;;;5102995;28;21022;-79
2022/04/10 09:23:57;;;;;;;0.60;0.10;;;7.50;1.00;;;;;;5103349;28;20544;-79
2022/04/10 09:26:25;;;;;;;0.60;0.10;;;7.60;1.00;;;;;;5103630;28;20504;-79
2022/04/10 09:28:54;;;;;;;0.60;0.10;;;7.80;1.00;;;;;;5103092;28;20446;-79
2022/04/10 09:31:33;;;;;;;0.93;0.90;;;7.80;1.00;;;;;;5093418;28;20489;-78
2022/04/10 09:34:03;;;;;;;0.60;0.10;;;7.70;1.00;;;;;;5100286;28;20520;-78
2022/04/10 09:36:33;;;;;;;0.60;0.20;;;7.70;1.00;;;;;;5099021;28;20594;-78
2022/04/10 09:39:05;;;;;;;0.83;0.47;;;7.70;1.00;;;;;;5100352;28;20477;-77
2022/04/10 09:41:33;;;;;;;0.60;0.20;;;7.70;1.00;;;;;;5100249;28;20484;-80
2022/04/10 09:44:10;;;;;;;0.60;0.10;;;7.70;1.00;;;;;;5098765;28;20539;-78
2022/04/10 09:46:38;;;;;;;0.60;0.10;;;8.00;1.00;;;;;;5097175;28;20483;-79
2022/04/10 09:49:12;;;;;;;1.00;0.70;;;8.20;1.00;;;;;;5098758;28;20501;-79
2022/04/10 09:51:58;;;;;;;0.70;0.40;;;8.40;1.00;;;;;;5100737;28;20497;-80
2022/04/10 09:54:33;;;;;;;0.60;0.30;;;8.50;1.00;;;;;;5099511;28;20539;-79
2022/04/10 09:57:03;;;;;;;0.60;0.10;;;;;;;;;;5101881;28;20470;-76
2022/04/10 09:59:40;;;;;;;0.83;0.73;;;8.70;1.00;;;;;;5102875;28;20485;-79
2022/04/10 10:02:08;;;;;;;0.60;0.10;;;9.20;99.90;;;;;;5104137;28;20447;-78
2022/04/10 10:04:38;;;;;;;0.60;0.10;;;9.20;99.90;;;;;;5101496;28;20451;-79
2022/04/10 10:07:09;;;;;;;0.60;0.10;;;9.80;99.90;;;;;;5062699;23;20496;-77
2022/04/10 10:09:41;;;;;;;0.60;0.10;;;9.90;99.90;;;;;;5042898;28;20454;-78
2022/04/10 10:12:16;;;;;;;0.60;0.10;;;9.80;99.90;;;;;;5046217;28;20469;-77
2022/04/10 10:14:47;;;;;;;1.70;0.83;;;9.80;99.90;;;;;;5048196;28;20465;-80
2022/04/10 10:17:19;;;;;;;3.20;0.63;;;9.50;99.90;;;;;;5046179;28;20474;-80
2022/04/10 10:19:47;;;;;;;0.60;0.10;;;9.60;99.90;;;;;;5044817;28;20501;-78
2022/04/10 10:22:17;;;;;;;0.60;0.20;;;9.60;99.90;;;;;;5026324;28;20448;-79
2022/04/10 10:24:53;;;;;;;0.60;0.10;;;9.60;99.90;;;;;;5038120;28;20466;-80
2022/04/10 10:27:41;;;;;;;0.60;0.10;;;9.60;99.90;;;;;;5038977;28;20500;-80
2022/04/10 10:30:20;;;;;;;0.70;0.30;;;9.60;99.90;;;;;;5040256;28;20774;-78
2022/04/10 10:32:49;;;;;;;0.60;0.10;;;;;;;;;;5037443;28;20446;-78
2022/04/10 10:35:31;;;;;;;0.70;0.30;;;9.60;99.90;;;;;;5032677;28;20526;-79
2022/04/10 10:38:00;;;;;;;0.60;0.10;;;9.60;99.90;;;;;;5039006;28;20481;-79
2022/04/10 10:40:32;;;;;;;0.60;0.40;;;9.40;99.90;;;;;;5041231;28;20513;-78
2022/04/10 10:43:05;;;;;;;0.60;0.10;;;9.40;99.90;;;;;;5036997;28;20461;-78
2022/04/10 10:45:40;;;;;;;0.97;0.80;;;9.50;99.90;;;;;;5045115;28;21021;-80
2022/04/10 10:48:24;;;;;;;0.60;0.10;;;9.50;99.90;;;;;;5044239;28;20474;-77
2022/04/10 10:50:53;;;;;;;0.60;0.10;;;9.50;99.90;;;;;;5047357;28;20465;-81
2022/04/10 10:53:44;;;;;;;0.60;0.10;;;9.50;99.90;;;;;;5046658;28;20454;-83
2022/04/10 10:56:20;;;;;;;0.60;0.30;;;9.60;99.90;;;;;;5040149;28;20515;-80
2022/04/10 10:59:32;;;;;;;0.60;0.20;;;9.80;99.90;;;;;;5039667;28;20947;-79
2022/04/10 11:02:06;;;;;;;0.60;0.10;;;9.70;99.90;;;;;;5059050;28;20641;-82
2022/04/10 11:04:36;;;;;;;0.60;0.10;;;10.00;99.90;;;;;;5053190;28;20980;-78
2022/04/10 11:07:15;;;;;;;0.60;0.10;;;10.50;99.90;;;;;;5041372;28;20548;-78
2022/04/10 11:09:58;;;;;;;0.60;0.10;;;10.80;99.90;;;;;;5042979;28;20482;-78
2022/04/10 11:12:46;;;;;;;0.60;0.10;;;11.00;99.90;;;;;;5040230;28;20498;-80
2022/04/10 11:15:24;;;;;;;0.60;0.10;;;10.70;99.90;;;;;;5052077;28;20481;-77
2022/04/10 11:17:55;;;;;;;0.60;0.10;;;10.70;99.90;;;;;;5049919;28;20461;-76
2022/04/10 11:20:24;;;;;;;0.60;0.10;;;10.90;99.90;;;;;;5040302;28;20586;-77
2022/04/10 11:22:57;;;;;;;0.60;0.10;;;11.00;99.90;;;;;;5038628;28;20450;-77
2022/04/10 11:25:38;;;;;;;0.60;0.10;;;11.00;99.90;;;;;;5033547;28;20463;-77
2022/04/10 11:28:10;;;;;;;0.90;0.20;;;10.90;99.90;;;;;;5032220;28;20432;-80
2022/04/10 11:30:40;;;;;;;0.60;0.10;;;10.70;99.90;;;;;;5033842;28;20450;-76
2022/04/10 11:33:09;;;;;;;0.60;0.10;;;10.60;99.90;;;;;;5033575;28;20444;-78
2022/04/10 11:35:44;;;;;;;0.60;0.10;;;10.70;99.90;;;;;;5032075;28;20458;-78
2022/04/10 11:38:15;;;;;;;0.60;0.10;;;10.70;99.90;;;;;;5034936;28;20447;-77
2022/04/10 11:40:47;;;;;;;0.60;0.10;;;;;;;;;;5047342;28;21865;-78
2022/04/10 11:43:18;;;;;;;0.60;0.10;;;10.50;99.90;;;;;;5054542;28;20442;-78
2022/04/10 11:45:48;;;;;;;0.60;0.10;;;10.60;99.90;;;;;;5055483;28;20469;-78
2022/04/10 11:48:16;;;;;;;0.70;0.60;;;;;;;;;;5042439;28;20945;-79
2022/04/10 11:50:44;;;;;;;0.60;0.10;;;10.20;99.90;;;;;;5035739;28;20960;-79
2022/04/10 11:53:18;;;;;;;0.60;0.10;;;10.20;99.90;;;;;;5035085;28;20456;-78
2022/04/10 11:55:48;;;;;;;1.13;0.57;;;9.90;99.90;;;;;;5035772;28;20462;-79
2022/04/10 11:58:19;;;;;;;0.60;0.10;;;9.90;99.90;;;;;;5033718;28;20461;-78
2022/04/10 12:00:51;;;;;;;0.60;0.10;;;9.80;99.90;;;;;;5038074;28;20477;-78
2022/04/10 12:03:21;;;;;;;0.60;0.10;;;9.80;99.90;;;;;;5051085;28;20460;-78
2022/04/10 12:05:49;;;;;;;0.60;0.10;;;9.80;99.90;;;;;;5051911;28;20489;-78
2022/04/10 12:08:18;;;;;;;0.60;0.20;;;9.80;99.90;;;;;;5052388;28;20443;-78
2022/04/10 12:10:53;;;;;;;0.60;0.10;;;9.90;99.90;;;;;;5047242;28;20920;-77
2022/04/10 12:13:29;;;;;;;0.60;0.10;;;9.90;99.90;;;;;;5057779;28;20512;-78
2022/04/10 12:16:01;;;;;;;0.60;0.10;;;10.00;99.90;;;;;;5052797;28;20540;-79
2022/04/10 12:18:29;;;;;;;0.60;0.20;;;10.00;99.90;;;;;;5037821;28;20466;-77
2022/04/10 12:20:59;;;;;;;0.97;0.50;;;10.10;99.90;;;;;;5038856;28;20489;-76
2022/04/10 12:23:26;;;;;;;0.60;0.10;;;10.10;99.90;;;;;;5042693;28;20936;-80
2022/04/10 12:25:56;;;;;;;0.60;0.20;;;10.20;99.90;;;;;;5034206;28;20470;-78
2022/04/10 12:28:26;;;;;;;0.70;0.23;;;10.30;99.90;;;;;;5035432;28;20469;-77
2022/04/10 12:30:54;;;;;;;1.17;1.07;;;10.30;99.90;;;;;;5032202;28;20428;-79
2022/04/10 12:33:23;;;;;;;0.70;0.20;;;10.30;99.90;;;;;;5032546;28;20455;-82
2022/04/10 12:35:51;;;;;;;0.90;0.63;;;10.20;99.90;;;;;;5032718;28;20465;-78
2022/04/10 12:38:19;;;;;;;0.60;0.37;;;10.20;99.90;;;;;;5032567;28;21024;-80
2022/04/10 12:40:47;;;;;;;0.60;0.10;;;10.40;99.90;;;;;;5030224;28;20514;-78
2022/04/10 12:43:15;;;;;;;0.60;0.20;;;10.60;99.90;;;;;;5032764;28;20451;-78
2022/04/10 12:45:45;;;;;;;0.60;0.10;;;;;;;;;;5033847;28;20474;-80
2022/04/10 12:48:21;;;;;;;0.60;0.10;;;11.20;99.90;;;;;;5031042;28;20462;-77
2022/04/10 12:51:07;;;;;;;0.60;0.10;;;11.20;99.90;;;;;;5030434;28;20544;-79
2022/04/10 12:53:36;;;;;;;0.60;0.10;;;11.30;99.90;;;;;;5016465;28;20439;-79
2022/04/10 12:56:05;;;;;;;0.60;0.20;;;11.40;99.90;;;;;;5018580;28;20468;-82
2022/04/10 12:58:45;;;;;;;0.60;0.30;;;11.40;99.90;;;;;;5036006;28;21009;-79
2022/04/10 13:01:29;;;;;;;0.60;0.20;;;11.50;99.90;;;;;;5035061;28;20636;-77
2022/04/10 13:03:58;;;;;;;0.60;0.10;;;11.50;99.90;;;;;;5017715;28;20450;-78
2022/04/10 13:06:47;;;;;;;0.80;0.30;;;11.40;99.90;;;;;;5031369;28;20915;-78
2022/04/10 13:09:16;;;;;;;0.60;0.10;;;11.40;99.90;;;;;;5032569;28;20446;-78
2022/04/10 13:11:45;;;;;;;0.60;0.10;;;11.40;99.90;;;;;;5032076;28;20455;-77
2022/04/10 13:14:15;;;;;;;0.60;0.10;;;11.30;99.90;;;;;;5031993;28;20908;-79
2022/04/10 13:16:46;;;;;;;0.60;0.10;;;11.30;99.90;;;;;;5027324;28;20997;-79
2022/04/10 13:19:16;;;;;;;0.60;0.23;;;11.40;99.90;;;;;;5033125;28;20497;-79
2022/04/10 13:21:45;;;;;;;0.60;0.10;;;11.40;99.90;;;;;;5035913;28;20569;-78
2022/04/10 13:24:15;;;;;;;0.60;0.20;;;11.30;99.90;;;;;;5042624;28;20462;-78
2022/04/10 13:26:45;;;;;;;0.60;0.10;;;11.30;99.90;;;;;;5044236;28;20495;-78
2022/04/10 13:29:15;;;;;;;0.60;0.10;;;11.30;99.90;;;;;;5034921;28;20466;-79